Terminal Aerodrome Forecast
Issued by NWS Pendleton, OR

Home | Current Version | Previous Version | Text Only | Print | Product List | Glossary On
Versions: 1 2 3 4 5 6 7 8 9 10 11 12 13 14 15 16 17 18 19 20 21 22 23 24 25
745
FTUS46 KPDT 110540
TAFPDT
TAF
KPDT 110540Z 1106/1206 17009KT P6SM VCSH BKN070 OVC100
     FM111100 19008KT P6SM SCT060 OVC100
     FM111600 21008KT 6SM -RA BR SCT028 OVC040
     FM112100 24011G17KT P6SM VCSH SCT050 OVC110=

USA.gov is the U.S. government's official web portal to all federal, state and local government web resources and services.